Time;durP1;ratioP1;P1;durP2;ratioP2;P2;SDS_P1;SDS_P2;PMS_P1;PMS_P2;Temp;Humidity;BMP_temperature;BMP_pressure;BME280_temperature;BME280_humidity;BME280_pressure;Samples;Min_cycle;Max_cycle;Signal;HPM_P1;HPM_P2
2022/03/17 00:02:24;;;;;;;23.00;14.57;;;7.00;99.90;;;;;;5088250;28;20428;-80
2022/03/17 00:05:10;;;;;;;29.40;16.97;;;7.00;99.90;;;;;;5086565;28;20412;-80
2022/03/17 00:07:55;;;;;;;30.23;16.27;;;7.10;99.90;;;;;;5082633;28;20448;-80
2022/03/17 00:10:40;;;;;;;26.90;16.60;;;7.20;99.90;;;;;;5083312;28;20455;-80
2022/03/17 00:13:24;;;;;;;23.43;18.33;;;7.00;99.90;;;;;;5082741;28;20384;-80
2022/03/17 00:16:10;;;;;;;17.43;14.73;;;6.90;99.90;;;;;;5082490;28;20461;-80
2022/03/17 00:18:55;;;;;;;28.23;15.00;;;6.90;99.90;;;;;;5082319;28;20418;-80
2022/03/17 00:21:40;;;;;;;27.17;16.83;;;6.90;99.90;;;;;;5082203;28;20767;-79
2022/03/17 00:24:25;;;;;;;21.97;15.87;;;6.90;99.90;;;;;;5082406;28;20385;-80
2022/03/17 00:27:10;;;;;;;26.43;16.67;;;6.80;99.90;;;;;;5122203;28;20387;-79
2022/03/17 00:29:54;;;;;;;26.20;16.13;;;6.80;99.90;;;;;;5123919;28;20387;-79
2022/03/17 00:32:38;;;;;;;27.43;17.10;;;6.80;99.90;;;;;;5122891;28;20475;-80
2022/03/17 00:38:25;;;;;;;32.43;16.57;;;6.60;99.90;;;;;;5122310;28;20407;-80
2022/03/17 00:41:10;;;;;;;23.47;17.30;;;6.70;99.90;;;;;;5123133;28;20492;-79
2022/03/17 00:43:54;;;;;;;28.93;16.60;;;6.70;99.90;;;;;;5121000;28;20378;-78
2022/03/17 00:46:39;;;;;;;27.60;16.17;;;6.70;99.90;;;;;;5125437;28;20391;-80
2022/03/17 00:49:24;;;;;;;25.07;14.90;;;6.70;99.90;;;;;;5123016;28;20891;-79
2022/03/17 00:52:11;;;;;;;29.33;16.73;;;6.90;99.90;;;;;;5123519;28;20430;-79
2022/03/17 00:54:55;;;;;;;23.90;17.03;;;6.80;99.90;;;;;;5123866;28;20449;-80
2022/03/17 00:57:40;;;;;;;25.07;16.10;;;6.70;99.90;;;;;;5122884;28;20423;-80
2022/03/17 01:00:24;;;;;;;18.80;14.27;;;6.60;99.90;;;;;;5123438;28;20445;-80
2022/03/17 01:03:09;;;;;;;28.07;16.47;;;6.60;99.90;;;;;;5122777;28;20489;-80
2022/03/17 01:05:54;;;;;;;25.87;16.20;;;6.70;99.90;;;;;;5122552;28;20383;-80
2022/03/17 01:08:39;;;;;;;25.47;16.63;;;6.80;99.90;;;;;;5122745;28;20430;-80
2022/03/17 01:11:24;;;;;;;25.60;18.07;;;6.60;99.90;;;;;;5123064;28;20380;-79
2022/03/17 01:14:08;;;;;;;18.97;14.50;;;6.70;99.90;;;;;;5115893;28;20412;-80
2022/03/17 01:16:52;;;;;;;34.30;17.47;;;6.90;99.90;;;;;;5102602;28;20403;-80
2022/03/17 01:19:37;;;;;;;31.63;19.17;;;7.00;99.90;;;;;;5101534;28;20388;-80
2022/03/17 01:22:22;;;;;;;23.73;17.03;;;7.30;99.90;;;;;;5101879;28;20439;-80
2022/03/17 01:25:07;;;;;;;24.43;15.87;;;7.40;99.90;;;;;;5101868;28;20415;-80
2022/03/17 01:27:52;;;;;;;28.53;16.90;;;7.50;99.90;;;;;;5101418;28;20550;-80
2022/03/17 01:30:37;;;;;;;29.10;17.67;;;7.60;99.90;;;;;;5087068;28;20483;-79
2022/03/17 01:33:21;;;;;;;21.70;14.47;;;7.60;99.90;;;;;;5114115;28;20376;-80
2022/03/17 01:36:06;;;;;;;29.77;17.97;;;7.60;99.90;;;;;;5113633;28;20466;-77
2022/03/17 01:38:52;;;;;;;21.33;16.83;;;7.60;99.90;;;;;;5107323;28;20495;-78
2022/03/17 01:41:39;;;;;;;30.20;16.47;;;7.60;99.90;;;;;;5112102;28;20502;-80
2022/03/17 01:44:25;;;;;;;22.33;16.90;;;7.50;99.90;;;;;;5114202;28;20399;-79
2022/03/17 01:50:12;;;;;;;24.67;17.40;;;7.40;99.90;;;;;;5116872;28;20379;-79
2022/03/17 01:52:57;;;;;;;28.50;18.80;;;7.50;99.90;;;;;;5117421;28;20381;-79
2022/03/17 01:55:42;;;;;;;25.77;18.50;;;7.40;99.90;;;;;;5117469;28;20474;-80
2022/03/17 01:58:27;;;;;;;50.67;28.00;;;7.40;99.90;;;;;;5115044;28;20407;-79
2022/03/17 02:01:12;;;;;;;46.80;24.37;;;7.40;99.90;;;;;;5103696;28;20447;-81
2022/03/17 02:03:56;;;;;;;39.00;22.93;;;7.30;99.90;;;;;;5090188;28;20544;-81
2022/03/17 02:06:42;;;;;;;36.47;18.70;;;7.30;99.90;;;;;;5101076;28;20926;-81
2022/03/17 02:09:26;;;;;;;40.23;20.37;;;7.30;99.90;;;;;;5102114;28;20445;-81
2022/03/17 02:15:09;;;;;;;22.97;15.77;;;7.20;99.90;;;;;;5101464;28;20455;-81
2022/03/17 02:17:55;;;;;;;25.77;16.37;;;6.90;99.90;;;;;;5102051;28;20392;-81
2022/03/17 02:20:39;;;;;;;25.40;18.27;;;6.70;99.90;;;;;;5102253;28;20389;-80
2022/03/17 02:26:21;;;;;;;22.37;17.70;;;6.80;99.90;;;;;;5103227;28;20384;-81
2022/03/17 02:29:06;;;;;;;27.73;17.50;;;6.70;99.90;;;;;;5102272;28;20497;-81
2022/03/17 02:31:50;;;;;;;17.97;14.60;;;6.80;99.90;;;;;;5112623;28;20457;-79
2022/03/17 02:34:35;;;;;;;22.60;15.90;;;6.70;99.90;;;;;;5116613;28;20431;-79
2022/03/17 02:37:20;;;;;;;34.63;20.47;;;6.70;99.90;;;;;;5115933;28;20454;-79
2022/03/17 02:40:08;;;;;;;39.33;20.57;;;6.90;99.90;;;;;;5115746;28;20403;-79
2022/03/17 02:42:54;;;;;;;29.60;20.00;;;7.10;99.90;;;;;;5115909;28;20404;-79
2022/03/17 02:45:38;;;;;;;33.07;20.60;;;7.10;99.90;;;;;;5115780;28;20463;-79
2022/03/17 02:48:23;;;;;;;34.27;20.40;;;7.30;99.90;;;;;;5115762;28;20450;-79
2022/03/17 02:51:07;;;;;;;43.83;22.07;;;7.30;99.90;;;;;;5117521;28;20396;-79
2022/03/17 02:53:52;;;;;;;27.03;17.80;;;7.40;99.90;;;;;;5119625;28;20415;-80
2022/03/17 02:56:37;;;;;;;31.07;18.87;;;7.40;99.90;;;;;;5119919;28;20465;-80
2022/03/17 02:59:21;;;;;;;34.50;20.70;;;7.40;99.90;;;;;;5120294;28;20868;-80
2022/03/17 03:02:06;;;;;;;26.40;17.60;;;7.40;99.90;;;;;;5102619;28;20472;-80
2022/03/17 03:04:50;;;;;;;33.90;19.37;;;7.40;99.90;;;;;;5119282;28;20417;-80
2022/03/17 03:07:36;;;;;;;29.27;16.80;;;7.40;99.90;;;;;;5119843;28;20442;-80
2022/03/17 03:10:21;;;;;;;27.07;18.87;;;7.50;99.90;;;;;;5122167;28;20378;-80
2022/03/17 03:13:06;;;;;;;27.90;19.33;;;7.20;99.90;;;;;;5126794;28;20792;-80
2022/03/17 03:15:51;;;;;;;30.93;19.67;;;7.30;99.90;;;;;;5110753;28;20406;-80
2022/03/17 03:18:36;;;;;;;29.27;18.57;;;7.40;99.90;;;;;;5125475;28;20419;-80
2022/03/17 03:21:20;;;;;;;29.00;20.10;;;7.40;99.90;;;;;;5126308;28;20434;-80
2022/03/17 03:24:05;;;;;;;36.33;20.77;;;7.50;99.90;;;;;;5126140;28;20387;-80
2022/03/17 03:26:51;;;;;;;34.93;19.27;;;7.50;99.90;;;;;;5127239;28;20378;-80
2022/03/17 03:29:36;;;;;;;28.07;20.40;;;7.40;99.90;;;;;;5126120;28;20435;-80
2022/03/17 03:32:20;;;;;;;33.53;21.90;;;7.40;99.90;;;;;;5126653;28;20375;-80
2022/03/17 03:38:04;;;;;;;25.77;20.20;;;7.30;99.90;;;;;;5127080;28;20696;-80
2022/03/17 03:40:48;;;;;;;37.10;22.23;;;7.40;99.90;;;;;;5126643;28;20391;-80
2022/03/17 03:43:32;;;;;;;24.80;19.10;;;7.40;99.90;;;;;;5129965;28;20405;-79
2022/03/17 03:46:17;;;;;;;25.37;20.57;;;7.50;99.90;;;;;;5139215;28;20394;-78
2022/03/17 03:49:02;;;;;;;29.43;18.67;;;7.50;99.90;;;;;;5127296;28;20991;-80
2022/03/17 03:51:46;;;;;;;23.17;18.80;;;7.50;99.90;;;;;;5105701;28;20415;-80
2022/03/17 03:54:31;;;;;;;32.00;19.53;;;7.40;99.90;;;;;;5105839;28;20899;-80
2022/03/17 03:57:15;;;;;;;33.40;20.33;;;7.40;99.90;;;;;;5106138;28;20425;-78
2022/03/17 03:59:59;;;;;;;28.33;19.27;;;7.40;99.90;;;;;;5115675;28;20388;-78
2022/03/17 04:02:44;;;;;;;29.13;18.73;;;7.10;99.90;;;;;;5104663;28;20396;-78
2022/03/17 04:05:30;;;;;;;25.27;18.50;;;7.20;99.90;;;;;;5119819;28;20400;-78
2022/03/17 04:08:15;;;;;;;21.93;18.00;;;6.90;99.90;;;;;;5119419;28;20482;-78
2022/03/17 04:11:00;;;;;;;23.03;16.50;;;7.10;99.90;;;;;;5092765;28;20832;-80
2022/03/17 04:13:44;;;;;;;28.90;17.90;;;7.00;99.90;;;;;;5089968;28;20414;-79
2022/03/17 04:16:29;;;;;;;27.77;17.93;;;6.80;99.90;;;;;;5106157;28;20839;-80
2022/03/17 04:19:15;;;;;;;28.33;16.20;;;6.60;99.90;;;;;;5105650;28;20437;-79
2022/03/17 04:22:00;;;;;;;25.20;17.97;;;6.40;99.90;;;;;;5103025;28;20449;-80
2022/03/17 04:24:44;;;;;;;27.27;18.23;;;6.50;99.90;;;;;;5101749;28;20415;-80
2022/03/17 04:27:30;;;;;;;23.33;16.83;;;6.50;99.90;;;;;;5101974;28;20384;-80
2022/03/17 04:30:14;;;;;;;26.30;18.00;;;6.60;99.90;;;;;;5101873;28;20446;-80
2022/03/17 04:32:59;;;;;;;28.40;17.97;;;6.70;99.90;;;;;;5101887;28;20718;-80
2022/03/17 04:35:44;;;;;;;30.00;18.13;;;6.70;99.90;;;;;;5101933;28;20434;-80
2022/03/17 04:38:28;;;;;;;31.67;19.57;;;6.80;99.90;;;;;;5102419;28;20435;-80
2022/03/17 04:41:13;;;;;;;25.70;17.50;;;7.00;99.90;;;;;;5102437;28;20396;-79
2022/03/17 04:43:58;;;;;;;28.63;18.27;;;7.00;99.90;;;;;;5102137;28;20392;-80
2022/03/17 04:46:42;;;;;;;34.80;18.00;;;7.10;99.90;;;;;;5099450;28;20455;-80
2022/03/17 04:49:27;;;;;;;25.17;17.37;;;7.30;99.90;;;;;;5101132;28;20502;-80
2022/03/17 04:55:09;;;;;;;28.47;18.37;;;7.20;99.90;;;;;;5080900;28;20467;-80
2022/03/17 04:57:53;;;;;;;26.10;18.00;;;6.90;99.90;;;;;;5080892;28;20392;-79
2022/03/17 05:00:39;;;;;;;33.37;18.40;;;6.70;99.90;;;;;;5066120;28;20512;-80
2022/03/17 05:03:23;;;;;;;26.07;16.37;;;6.60;99.90;;;;;;5081107;28;20448;-80
2022/03/17 05:06:12;;;;;;;25.20;17.83;;;6.70;99.90;;;;;;5081830;28;20389;-80
2022/03/17 05:08:59;;;;;;;25.37;17.00;;;6.60;99.90;;;;;;5080884;28;20444;-80
2022/03/17 05:11:43;;;;;;;22.80;13.50;;;6.40;99.90;;;;;;5080647;28;20433;-80
2022/03/17 05:14:28;;;;;;;21.40;16.80;;;6.30;99.90;;;;;;5080767;28;20463;-80
2022/03/17 05:17:13;;;;;;;29.53;19.07;;;6.20;99.90;;;;;;5080925;28;20461;-80
2022/03/17 05:19:57;;;;;;;31.17;18.83;;;6.20;99.90;;;;;;5081003;28;20432;-80
2022/03/17 05:22:42;;;;;;;32.20;16.77;;;6.20;99.90;;;;;;5094874;28;20389;-81
2022/03/17 05:25:27;;;;;;;31.73;17.63;;;6.10;99.90;;;;;;5081411;28;20432;-80
2022/03/17 05:28:12;;;;;;;28.67;18.87;;;6.20;99.90;;;;;;5065252;28;20487;-80
2022/03/17 05:30:57;;;;;;;23.33;18.80;;;6.10;99.90;;;;;;5080520;28;20756;-79
2022/03/17 05:33:41;;;;;;;23.93;15.00;;;6.10;99.90;;;;;;5079914;28;20385;-80
2022/03/17 05:36:25;;;;;;;29.53;19.43;;;6.10;99.90;;;;;;5081320;28;20392;-80
2022/03/17 05:39:10;;;;;;;26.53;19.17;;;6.10;99.90;;;;;;5081014;28;20916;-80
2022/03/17 05:41:54;;;;;;;25.20;17.73;;;6.30;99.90;;;;;;5081259;28;20393;-80
2022/03/17 05:44:39;;;;;;;29.50;18.93;;;6.10;99.90;;;;;;5066001;28;20388;-80
2022/03/17 05:47:23;;;;;;;21.93;14.90;;;6.00;99.90;;;;;;5081278;28;20448;-80
2022/03/17 05:50:10;;;;;;;28.47;18.17;;;6.10;99.90;;;;;;5066192;28;20404;-81
2022/03/17 05:52:54;;;;;;;26.00;17.50;;;6.20;99.90;;;;;;5066429;28;20389;-80
2022/03/17 05:55:39;;;;;;;31.63;19.67;;;6.30;99.90;;;;;;5080734;28;20433;-81
2022/03/17 05:58:24;;;;;;;33.20;19.27;;;6.20;99.90;;;;;;5081392;28;20393;-80
2022/03/17 06:01:08;;;;;;;32.10;19.07;;;6.20;99.90;;;;;;5081601;28;20407;-80
2022/03/17 06:03:53;;;;;;;28.50;19.07;;;6.20;99.90;;;;;;5082765;28;20749;-80
2022/03/17 06:06:38;;;;;;;26.03;18.67;;;6.20;99.90;;;;;;5084556;28;20411;-80
2022/03/17 06:09:22;;;;;;;32.40;18.40;;;6.30;99.90;;;;;;5081100;28;20461;-80
2022/03/17 06:12:08;;;;;;;28.40;19.70;;;6.30;99.90;;;;;;5081247;28;20389;-80
2022/03/17 06:14:53;;;;;;;32.13;19.87;;;6.30;99.90;;;;;;5065917;28;20397;-80
2022/03/17 06:17:49;;;;;;;29.20;19.50;;;6.30;99.90;;;;;;5079878;28;20389;-79
2022/03/17 06:20:35;;;;;;;27.07;18.50;;;6.50;99.90;;;;;;5080508;28;20403;-80
2022/03/17 06:23:20;;;;;;;32.50;19.00;;;6.40;99.90;;;;;;5080570;28;20389;-80
2022/03/17 06:26:04;;;;;;;33.07;20.27;;;6.50;99.90;;;;;;5081351;28;20448;-80
2022/03/17 06:28:49;;;;;;;28.47;17.27;;;6.50;99.90;;;;;;5081238;28;20453;-81
2022/03/17 06:31:36;;;;;;;26.00;17.67;;;6.50;99.90;;;;;;5080701;28;20465;-81
2022/03/17 06:34:21;;;;;;;24.03;17.07;;;6.40;99.90;;;;;;5088496;28;20941;-80
2022/03/17 06:37:05;;;;;;;24.13;17.60;;;6.40;99.90;;;;;;5093305;28;20431;-81
2022/03/17 06:39:50;;;;;;;28.97;19.80;;;6.40;99.90;;;;;;5099590;28;20725;-81
2022/03/17 06:42:35;;;;;;;33.57;21.90;;;6.40;99.90;;;;;;5089787;28;20476;-81
2022/03/17 06:45:20;;;;;;;31.33;19.53;;;6.50;99.90;;;;;;5095797;28;20440;-80
2022/03/17 06:48:04;;;;;;;34.87;19.17;;;6.50;99.90;;;;;;5107877;28;20443;-79
2022/03/17 06:50:49;;;;;;;28.20;20.03;;;6.50;99.90;;;;;;5090039;28;20381;-79
2022/03/17 06:53:33;;;;;;;34.83;19.57;;;6.60;99.90;;;;;;5097048;28;20427;-79
2022/03/17 06:56:17;;;;;;;35.43;22.23;;;6.70;99.90;;;;;;5089189;28;20438;-79
2022/03/17 06:59:02;;;;;;;35.37;21.10;;;6.70;99.90;;;;;;5100186;28;20420;-78
2022/03/17 07:01:47;;;;;;;28.63;20.17;;;6.70;99.90;;;;;;5088044;28;20913;-78
2022/03/17 07:04:31;;;;;;;35.33;22.00;;;6.80;99.90;;;;;;5100116;28;20462;-79
2022/03/17 07:07:16;;;;;;;40.72;25.48;;;7.00;99.90;;;;;;5093538;28;20458;-79
2022/03/17 07:10:01;;;;;;;31.93;20.43;;;7.10;99.90;;;;;;5074678;28;20210;-79
2022/03/17 07:12:47;;;;;;;32.17;21.33;;;6.90;99.90;;;;;;5083585;28;20411;-79
2022/03/17 07:15:31;;;;;;;27.67;20.57;;;7.00;99.90;;;;;;5067579;28;20453;-78
2022/03/17 07:18:16;;;;;;;33.07;19.83;;;7.00;99.90;;;;;;5090072;28;20414;-78
2022/03/17 07:21:00;;;;;;;29.50;19.17;;;7.10;99.90;;;;;;5093243;28;20524;-78
2022/03/17 07:23:45;;;;;;;39.27;23.50;;;7.30;99.90;;;;;;5108923;28;20418;-78
2022/03/17 07:26:30;;;;;;;33.73;22.40;;;7.40;99.90;;;;;;5081861;28;20435;-80
2022/03/17 07:29:15;;;;;;;33.87;20.00;;;7.50;99.90;;;;;;5088588;28;20564;-80
2022/03/17 07:31:59;;;;;;;29.43;18.50;;;7.50;99.90;;;;;;5078631;28;20400;-80
2022/03/17 07:34:43;;;;;;;26.77;19.00;;;7.50;99.90;;;;;;5088511;28;20424;-80
2022/03/17 07:37:28;;;;;;;31.10;20.47;;;7.80;99.90;;;;;;5095776;28;20457;-80
2022/03/17 07:40:13;;;;;;;31.50;22.97;;;8.00;99.90;;;;;;5093143;28;20411;-79
2022/03/17 07:43:00;;;;;;;32.77;21.87;;;8.20;99.90;;;;;;5074082;28;20496;-78
2022/03/17 07:45:44;;;;;;;32.20;21.17;;;8.30;99.90;;;;;;5084641;28;20548;-80
2022/03/17 07:48:29;;;;;;;37.67;22.53;;;8.30;99.90;;;;;;5070636;28;20502;-80
2022/03/17 07:51:14;;;;;;;33.43;21.80;;;8.40;99.90;;;;;;5083910;28;20492;-80
2022/03/17 07:53:59;;;;;;;42.73;27.60;;;8.40;99.90;;;;;;5090045;28;20465;-79
2022/03/17 07:56:44;;;;;;;37.50;22.20;;;8.50;99.90;;;;;;5087604;28;20485;-80
2022/03/17 07:59:29;;;;;;;37.37;23.50;;;8.50;99.90;;;;;;5084490;28;20463;-80
2022/03/17 08:02:16;;;;;;;42.13;27.95;;;8.60;99.90;;;;;;5078152;28;20556;-80
2022/03/17 08:05:02;;;;;;;53.23;26.33;;;8.70;99.90;;;;;;5092405;28;20225;-81
2022/03/17 08:07:46;;;;;;;37.80;25.37;;;8.70;99.90;;;;;;5088969;28;20488;-81
2022/03/17 08:10:31;;;;;;;33.50;23.70;;;8.70;99.90;;;;;;5081119;28;20423;-80
2022/03/17 08:13:16;;;;;;;40.50;25.47;;;8.80;99.90;;;;;;5087244;28;20408;-81
2022/03/17 08:16:01;;;;;;;37.33;24.87;;;8.90;99.90;;;;;;5092162;28;20404;-81
2022/03/17 08:18:45;;;;;;;40.53;23.37;;;9.00;99.90;;;;;;5088276;28;20423;-80
2022/03/17 08:21:30;;;;;;;35.90;23.50;;;9.00;99.90;;;;;;5088451;28;20409;-80
2022/03/17 08:24:15;;;;;;;28.00;21.20;;;9.00;99.90;;;;;;5090033;28;20400;-81
2022/03/17 08:27:02;;;;;;;30.00;22.03;;;8.70;99.90;;;;;;5079056;28;20483;-80
2022/03/17 08:29:48;;;;;;;36.90;24.90;;;8.20;99.90;;;;;;5094303;28;20462;-80
2022/03/17 08:32:32;;;;;;;29.37;21.80;;;8.50;99.90;;;;;;5078711;28;20509;-79
2022/03/17 08:35:17;;;;;;;35.93;22.77;;;8.80;99.90;;;;;;5084491;28;20463;-80
2022/03/17 08:38:02;;;;;;;45.03;27.40;;;9.00;99.90;;;;;;5090208;28;20755;-77
2022/03/17 08:40:47;;;;;;;49.70;26.47;;;9.20;99.90;;;;;;5097590;28;20423;-78
2022/03/17 08:43:31;;;;;;;41.17;25.20;;;9.30;99.90;;;;;;5091710;28;20436;-81
2022/03/17 08:49:20;;;;;;;38.10;25.67;;;9.50;99.90;;;;;;5093931;28;20982;-81
2022/03/17 08:52:05;;;;;;;42.93;25.67;;;9.50;99.90;;;;;;5083324;28;20508;-79
2022/03/17 08:54:50;;;;;;;37.10;22.87;;;9.50;99.90;;;;;;5097838;28;20539;-79
2022/03/17 08:57:34;;;;;;;35.13;23.23;;;9.40;99.90;;;;;;5098193;28;20436;-80
2022/03/17 09:00:19;;;;;;;32.30;23.77;;;9.10;99.90;;;;;;5082053;28;20453;-79
2022/03/17 09:03:05;;;;;;;38.90;25.77;;;8.90;99.90;;;;;;5094255;28;20439;-80
2022/03/17 09:05:49;;;;;;;39.47;29.70;;;9.00;99.90;;;;;;5079495;28;20751;-80
2022/03/17 09:08:35;;;;;;;38.50;26.43;;;9.00;99.90;;;;;;5087665;28;20214;-81
2022/03/17 09:11:20;;;;;;;34.30;25.98;;;8.80;99.90;;;;;;5091387;28;20478;-80
2022/03/17 09:14:05;;;;;;;42.50;28.03;;;8.80;99.90;;;;;;5089697;28;20208;-80
2022/03/17 09:16:49;;;;;;;38.77;25.50;;;9.00;99.90;;;;;;5097302;28;20423;-79
2022/03/17 09:19:34;;;;;;;34.37;24.90;;;9.00;99.90;;;;;;5091743;28;20435;-78
2022/03/17 09:22:18;;;;;;;35.57;24.33;;;9.00;99.90;;;;;;5087584;28;20444;-78
2022/03/17 09:25:05;;;;;;;42.53;25.70;;;9.00;99.90;;;;;;5072201;28;20542;-79
2022/03/17 09:27:51;;;;;;;38.27;25.40;;;9.30;99.90;;;;;;5090653;28;20458;-77
2022/03/17 09:30:36;;;;;;;35.80;25.03;;;9.40;99.90;;;;;;5084415;28;20408;-79
2022/03/17 09:33:25;;;;;;;42.90;27.70;;;9.60;99.90;;;;;;5081429;28;20422;-79
2022/03/17 09:36:09;;;;;;;37.27;24.40;;;9.80;99.90;;;;;;5086875;28;20432;-78
2022/03/17 09:41:49;;;;;;;31.53;22.73;;;9.30;99.90;;;;;;5088584;28;20797;-80
2022/03/17 09:44:34;;;;;;;35.60;23.70;;;9.20;99.90;;;;;;5084977;28;20956;-79
2022/03/17 09:47:21;;;;;;;38.80;26.13;;;9.30;99.90;;;;;;5085505;28;21004;-80
2022/03/17 09:50:07;;;;;;;31.43;22.07;;;9.60;99.90;;;;;;5092225;28;20439;-79
2022/03/17 09:52:52;;;;;;;35.60;23.33;;;9.80;99.90;;;;;;5084143;28;20428;-80
2022/03/17 09:55:37;;;;;;;34.37;23.20;;;9.70;99.90;;;;;;5096291;28;20859;-79
2022/03/17 09:58:22;;;;;;;40.40;26.10;;;9.40;99.90;;;;;;5058324;28;20471;-79
2022/03/17 10:01:10;;;;;;;36.97;22.40;;;9.50;99.90;;;;;;5071607;28;20339;-77
2022/03/17 10:04:03;;;;;;;38.63;24.10;;;9.70;99.90;;;;;;5059118;28;20479;-81
2022/03/17 10:06:47;;;;;;;33.87;21.40;;;9.70;99.90;;;;;;5089699;28;20436;-79
2022/03/17 10:09:32;;;;;;;28.90;21.83;;;9.80;99.90;;;;;;5086710;28;20515;-79
2022/03/17 10:12:21;;;;;;;31.57;23.00;;;9.60;99.90;;;;;;5080588;28;20912;-78
2022/03/17 10:15:19;;;;;;;31.57;21.23;;;9.60;99.90;;;;;;5085613;28;20408;-79
2022/03/17 10:18:23;;;;;;;33.00;22.47;;;9.80;99.90;;;;;;5081075;28;20423;-79
2022/03/17 10:21:10;;;;;;;34.07;24.37;;;9.70;99.90;;;;;;5087855;28;20412;-80
2022/03/17 10:24:02;;;;;;;33.13;23.83;;;9.80;99.90;;;;;;5081477;28;20518;-78
2022/03/17 10:26:51;;;;;;;31.93;23.50;;;9.70;99.90;;;;;;5086079;28;20408;-79
2022/03/17 10:29:35;;;;;;;32.77;24.50;;;9.80;99.90;;;;;;5070418;28;20495;-78
2022/03/17 10:32:20;;;;;;;38.47;25.77;;;9.90;99.90;;;;;;5103115;28;20778;-78
2022/03/17 10:35:08;;;;;;;30.30;22.77;;;9.90;99.90;;;;;;5069314;28;20401;-79
2022/03/17 10:37:53;;;;;;;36.20;21.67;;;9.90;99.90;;;;;;5093292;28;20430;-78
2022/03/17 10:40:38;;;;;;;28.10;20.17;;;9.80;99.90;;;;;;5079157;28;20445;-78
2022/03/17 10:43:24;;;;;;;33.87;23.27;;;10.00;99.90;;;;;;5074016;28;20997;-78
2022/03/17 10:46:13;;;;;;;34.70;22.33;;;10.10;99.90;;;;;;5090138;28;20760;-77
2022/03/17 10:49:00;;;;;;;35.70;26.77;;;10.10;99.90;;;;;;5087283;28;20460;-78
2022/03/17 10:51:44;;;;;;;32.40;22.10;;;10.00;99.90;;;;;;5094317;28;20415;-77
2022/03/17 10:54:29;;;;;;;31.97;22.83;;;10.00;99.90;;;;;;5077703;28;20411;-78
2022/03/17 10:57:18;;;;;;;31.50;20.73;;;10.20;99.90;;;;;;5090834;28;20584;-79
2022/03/17 11:00:03;;;;;;;30.17;22.87;;;10.20;99.90;;;;;;5072761;28;20775;-78
2022/03/17 11:02:50;;;;;;;45.03;24.47;;;10.20;99.90;;;;;;5098644;28;20420;-79
2022/03/17 11:05:34;;;;;;;31.00;20.90;;;10.40;99.90;;;;;;5084742;28;20822;-78
2022/03/17 11:08:20;;;;;;;30.80;22.67;;;10.50;99.90;;;;;;5097693;28;20456;-79
2022/03/17 11:11:08;;;;;;;38.10;24.40;;;10.70;99.90;;;;;;5090857;28;20509;-78
2022/03/17 11:13:53;;;;;;;36.27;23.50;;;10.40;99.90;;;;;;5089736;28;20408;-78
2022/03/17 11:16:42;;;;;;;29.67;21.40;;;10.50;99.90;;;;;;5094814;28;20451;-78
2022/03/17 11:19:27;;;;;;;35.77;21.43;;;10.60;99.90;;;;;;5091121;28;20423;-79
2022/03/17 11:22:22;;;;;;;40.77;21.67;;;10.60;99.90;;;;;;5090124;28;20470;-80
2022/03/17 11:25:29;;;;;;;38.43;21.40;;;10.50;99.90;;;;;;5078995;28;20459;-78
2022/03/17 11:28:15;;;;;;;26.87;20.03;;;10.60;99.90;;;;;;5086867;28;20446;-78
2022/03/17 11:31:04;;;;;;;28.57;20.27;;;10.50;99.90;;;;;;5089728;28;20412;-78
2022/03/17 11:33:58;;;;;;;32.00;21.83;;;10.50;99.90;;;;;;5075435;28;20440;-78
2022/03/17 11:37:23;;;;;;;30.03;21.93;;;10.60;99.90;;;;;;5094196;28;20407;-78
2022/03/17 11:40:10;;;;;;;33.93;22.20;;;10.50;99.90;;;;;;5089663;28;20396;-79
2022/03/17 11:43:09;;;;;;;31.77;21.20;;;10.60;99.90;;;;;;5086910;28;20481;-80
2022/03/17 11:46:12;;;;;;;30.30;23.33;;;10.70;99.90;;;;;;5093402;28;20455;-79
2022/03/17 11:48:57;;;;;;;28.67;20.33;;;10.70;99.90;;;;;;5101875;28;21085;-79
2022/03/17 11:51:53;;;;;;;32.60;21.90;;;10.60;99.90;;;;;;5109105;28;20419;-80
2022/03/17 11:54:38;;;;;;;33.37;24.10;;;11.00;99.90;;;;;;5092289;28;20436;-79
2022/03/17 11:57:22;;;;;;;31.37;21.53;;;11.10;99.90;;;;;;5096361;28;20415;-78
2022/03/17 12:00:07;;;;;;;32.53;22.20;;;11.20;99.90;;;;;;5099034;28;20961;-78
2022/03/17 12:03:05;;;;;;;32.10;22.53;;;11.50;99.90;;;;;;5089330;28;20420;-78
2022/03/17 12:06:07;;;;;;;35.57;23.30;;;11.60;99.90;;;;;;5060346;28;20465;-77
2022/03/17 12:09:02;;;;;;;40.83;24.67;;;11.70;99.90;;;;;;5095093;28;20455;-78
2022/03/17 12:11:49;;;;;;;24.93;19.50;;;11.80;99.90;;;;;;5096832;28;20426;-78
2022/03/17 12:14:48;;;;;;;29.87;20.80;;;11.90;99.90;;;;;;5098500;28;20435;-78
2022/03/17 12:17:33;;;;;;;31.57;23.47;;;12.00;99.90;;;;;;5073906;28;20419;-78
2022/03/17 12:20:25;;;;;;;32.30;22.37;;;12.10;99.90;;;;;;5061494;28;20875;-79
2022/03/17 12:23:45;;;;;;;29.23;20.53;;;12.20;99.90;;;;;;5106610;28;20428;-79
2022/03/17 12:26:30;;;;;;;27.17;22.73;;;12.20;99.90;;;;;;5106007;28;20408;-79
2022/03/17 12:29:16;;;;;;;29.27;22.23;;;12.20;99.90;;;;;;5081368;28;20479;-80
2022/03/17 12:32:06;;;;;;;31.27;23.17;;;12.20;99.90;;;;;;5078170;28;20931;-79
2022/03/17 12:34:54;;;;;;;30.33;20.63;;;12.20;99.90;;;;;;5086222;28;20443;-79
2022/03/17 12:37:42;;;;;;;32.40;21.90;;;12.20;99.90;;;;;;5100767;28;20428;-80
2022/03/17 12:40:26;;;;;;;36.93;25.23;;;12.30;99.90;;;;;;5097138;28;20486;-79
2022/03/17 12:43:13;;;;;;;32.43;22.13;;;12.30;99.90;;;;;;5095237;28;20436;-78
2022/03/17 12:45:58;;;;;;;45.07;24.07;;;12.30;99.90;;;;;;5098503;28;20473;-79
2022/03/17 12:48:43;;;;;;;28.67;21.00;;;12.30;99.90;;;;;;5097403;28;20462;-79
2022/03/17 12:51:27;;;;;;;28.40;20.87;;;12.20;99.90;;;;;;5092283;28;20459;-79
2022/03/17 12:54:14;;;;;;;29.03;20.53;;;12.30;99.90;;;;;;5097883;28;20462;-79
2022/03/17 12:56:58;;;;;;;34.03;21.57;;;12.50;99.90;;;;;;5050412;28;20434;-79
2022/03/17 12:59:43;;;;;;;32.10;23.93;;;12.50;99.90;;;;;;5083695;28;20428;-79
2022/03/17 13:02:28;;;;;;;33.37;20.67;;;12.30;99.90;;;;;;5078717;28;20446;-79
2022/03/17 13:08:24;;;;;;;22.90;19.07;;;12.00;99.90;;;;;;5099436;28;20501;-79
2022/03/17 13:14:28;;;;;;;30.83;20.30;;;12.00;99.90;;;;;;5104090;28;20403;-78
2022/03/17 13:17:13;;;;;;;27.70;21.23;;;12.60;99.90;;;;;;5089051;28;20441;-78
2022/03/17 13:19:58;;;;;;;28.47;20.30;;;13.20;99.90;;;;;;5080516;28;20420;-78
2022/03/17 13:22:42;;;;;;;22.63;17.90;;;13.30;99.90;;;;;;5102744;28;20396;-80
2022/03/17 13:25:30;;;;;;;26.00;18.17;;;12.40;99.90;;;;;;5092480;28;20758;-78
2022/03/17 13:28:19;;;;;;;25.80;20.63;;;12.50;99.90;;;;;;5072877;28;21078;-79
2022/03/17 13:31:04;;;;;;;25.77;17.53;;;12.30;99.90;;;;;;5070588;28;20413;-78
2022/03/17 13:33:52;;;;;;;24.77;17.80;;;12.20;99.90;;;;;;5051761;28;20419;-79
2022/03/17 13:36:50;;;;;;;21.00;16.00;;;12.10;99.90;;;;;;5066106;28;20440;-79
2022/03/17 13:39:36;;;;;;;29.10;19.63;;;12.60;99.90;;;;;;5060599;28;20420;-78
2022/03/17 13:42:22;;;;;;;26.10;19.80;;;12.40;99.90;;;;;;5085559;28;20434;-79
2022/03/17 13:45:07;;;;;;;24.93;17.37;;;12.60;99.90;;;;;;5086136;28;20467;-79
2022/03/17 13:48:02;;;;;;;32.00;19.80;;;12.60;99.90;;;;;;5072418;28;20455;-77
2022/03/17 13:50:56;;;;;;;25.70;16.87;;;12.90;99.90;;;;;;5085586;28;20812;-80
2022/03/17 13:53:42;;;;;;;26.00;16.70;;;12.20;99.90;;;;;;5096447;28;20419;-79
2022/03/17 13:56:27;;;;;;;21.07;16.20;;;12.00;99.90;;;;;;5104107;28;20485;-78
2022/03/17 13:59:15;;;;;;;20.30;13.90;;;11.90;99.90;;;;;;5108050;28;20469;-78
2022/03/17 14:02:22;;;;;;;18.70;16.30;;;12.10;99.90;;;;;;5090669;28;20427;-79
2022/03/17 14:05:14;;;;;;;20.07;14.50;;;12.40;99.90;;;;;;5080314;28;20930;-78
2022/03/17 14:07:59;;;;;;;27.33;15.63;;;12.70;99.90;;;;;;5087351;28;20463;-79
2022/03/17 14:10:43;;;;;;;24.33;16.30;;;12.10;99.90;;;;;;5090639;28;20446;-78
2022/03/17 14:13:30;;;;;;;17.70;12.77;;;12.10;99.90;;;;;;5065253;28;20504;-82
2022/03/17 14:16:16;;;;;;;19.30;14.80;;;12.20;99.90;;;;;;5092969;28;20415;-80
2022/03/17 14:19:01;;;;;;;21.57;15.47;;;12.40;99.90;;;;;;5083414;28;20412;-79
2022/03/17 14:24:44;;;;;;;29.37;17.20;;;12.60;99.90;;;;;;5089017;28;20432;-79
2022/03/17 14:27:34;;;;;;;23.50;17.00;;;12.70;99.90;;;;;;5078390;28;20433;-79
2022/03/17 14:30:19;;;;;;;21.60;17.03;;;12.80;99.90;;;;;;5077820;28;20425;-78
2022/03/17 14:33:03;;;;;;;31.37;21.63;;;12.80;99.90;;;;;;5086645;28;20476;-79
2022/03/17 14:35:51;;;;;;;31.77;20.30;;;12.80;99.90;;;;;;5123432;28;20414;-78
2022/03/17 14:38:36;;;;;;;27.63;20.93;;;12.90;99.90;;;;;;5103678;28;20424;-78
2022/03/17 14:41:21;;;;;;;25.27;18.90;;;12.90;99.90;;;;;;5090580;28;20419;-79
2022/03/17 14:44:08;;;;;;;29.60;18.60;;;12.90;99.90;;;;;;5105970;28;20412;-79